Kenner, LA

6:55 AM CDT on July 28, 2016 (GMT -0500)
Driftwood | | Change Station

Elev 7 ft 30.03 °N, 90.23 °W | Updated 2 seconds ago

Scattered Clouds
Scattered Clouds
79.2 °F
Feels Like 83 °F
N
0.0
Wind Variable Wind from South
Gusts 0.0 mph

Today
High -- | Low -- °F
--% Chance of Precip.
Yesterday
High -- | Low -- °F
Precip. -- in
Pressure 30.04 in
Visibility 8.0 miles
Clouds Few 2200 ft
Few 10000 ft
Scattered Clouds 25000 ft
Heat Index 83 °F
Dew Point 76 °F
Humidity 90%
Rainfall 0.00 in
Snow Depth Not available.
6:17 AM 7:56 PM
Waning Crescent, 33% visible
METAR KMSY 281153Z 17003KT 8SM FEW022 FEW100 SCT250 27/25 A3003 RMK AO2 SLP172 70045 T02670250 10272 20256 50001
Pressure 30.04 in
Visibility 8.0 miles
Clouds Few 2200 ft
Few 10000 ft
Scattered Clouds 25000 ft
Heat Index 83 °F
Dew Point 76 °F
Humidity 90%
Rainfall 0.00 in
Snow Depth Not available.
6:17 AM 7:56 PM
Waning Crescent, 33% visible
METAR KMSY 281153Z 17003KT 8SM FEW022 FEW100 SCT250 27/25 A3003 RMK AO2 SLP172 70045 T02670250 10272 20256 50001

10-Day Weather Forecast

Almanac

Astronomy

Jul. 28, 2016 Rise Set
Actual Time
Civil Twilight
Nautical Twilight
Astronomical Twilight
Moon
Length of Visible Light
Length of Day
Tomorrow will be .
, % of the Moon is Illuminated

Today's Extremes

State Highs State Lows

Community

WunderPhotos

Upload Photos

1,928,096 photos uploaded!

WunderBlog® & News

Nearby

Air Quality

  Air Quality AQ Index Pollutant
Not available.

Snow Depth

Station Depth Elevation

Earthquake Activity

City Distance Mag. Time & Date
Minimum magnitude displayed is 2.5.

Coastal Water Temperatures

Place Temperature

Stations

Nearby Weather Stations

Station Location Temp. Windchill Dew Point Humidity Wind Precip. Elev Updated Type
                   

Watches & Warnings

There are currently no watches in effect.